sensor_id;sensor_type;location;lat;lon;timestamp;temperature;humidity
19090;DHT22;9677;50.656;13.064;2022-12-10T00:00:06;5.90;60.10
19090;DHT22;9677;50.656;13.064;2022-12-10T00:02:36;5.90;60.20
19090;DHT22;9677;50.656;13.064;2022-12-10T00:05:06;5.90;60.20
19090;DHT22;9677;50.656;13.064;2022-12-10T00:07:36;5.90;60.20
19090;DHT22;9677;50.656;13.064;2022-12-10T00:10:05;5.90;60.20
19090;DHT22;9677;50.656;13.064;2022-12-10T00:12:37;5.90;60.20
19090;DHT22;9677;50.656;13.064;2022-12-10T00:15:06;6.20;60.30
19090;DHT22;9677;50.656;13.064;2022-12-10T00:17:35;5.90;60.10
19090;DHT22;9677;50.656;13.064;2022-12-10T00:20:07;5.90;60.10
19090;DHT22;9677;50.656;13.064;2022-12-10T00:22:36;5.90;60.10
19090;DHT22;9677;50.656;13.064;2022-12-10T00:25:05;5.90;60.10
19090;DHT22;9677;50.656;13.064;2022-12-10T00:27:34;5.90;60.10
19090;DHT22;9677;50.656;13.064;2022-12-10T00:30:04;5.90;60.10
19090;DHT22;9677;50.656;13.064;2022-12-10T00:32:34;5.90;60.20
19090;DHT22;9677;50.656;13.064;2022-12-10T00:35:02;6.00;60.30
19090;DHT22;9677;50.656;13.064;2022-12-10T00:37:34;6.00;60.30
19090;DHT22;9677;50.656;13.064;2022-12-10T00:40:03;5.90;60.20
19090;DHT22;9677;50.656;13.064;2022-12-10T00:42:33;5.90;60.20
19090;DHT22;9677;50.656;13.064;2022-12-10T00:45:01;6.00;60.30
19090;DHT22;9677;50.656;13.064;2022-12-10T00:47:30;6.00;60.30
19090;DHT22;9677;50.656;13.064;2022-12-10T00:49:59;6.00;60.30
19090;DHT22;9677;50.656;13.064;2022-12-10T00:52:27;6.00;60.30
19090;DHT22;9677;50.656;13.064;2022-12-10T00:54:58;6.00;60.30
19090;DHT22;9677;50.656;13.064;2022-12-10T00:57:27;6.00;60.20
19090;DHT22;9677;50.656;13.064;2022-12-10T00:59:55;6.00;60.20
19090;DHT22;9677;50.656;13.064;2022-12-10T01:02:24;6.00;61.00
19090;DHT22;9677;50.656;13.064;2022-12-10T01:04:53;6.00;60.20
19090;DHT22;9677;50.656;13.064;2022-12-10T01:07:22;6.00;60.20
19090;DHT22;9677;50.656;13.064;2022-12-10T01:09:50;6.00;60.20
19090;DHT22;9677;50.656;13.064;2022-12-10T01:12:22;6.00;60.30
19090;DHT22;9677;50.656;13.064;2022-12-10T01:14:51;6.00;60.20
19090;DHT22;9677;50.656;13.064;2022-12-10T01:17:19;6.00;60.30
19090;DHT22;9677;50.656;13.064;2022-12-10T01:19:48;6.00;60.20
19090;DHT22;9677;50.656;13.064;2022-12-10T01:22:17;6.00;60.20
19090;DHT22;9677;50.656;13.064;2022-12-10T01:24:45;6.00;60.20
19090;DHT22;9677;50.656;13.064;2022-12-10T01:27:14;6.00;60.20
19090;DHT22;9677;50.656;13.064;2022-12-10T01:29:44;6.10;60.30
19090;DHT22;9677;50.656;13.064;2022-12-10T01:32:12;6.00;60.30
19090;DHT22;9677;50.656;13.064;2022-12-10T01:34:41;6.00;60.30
19090;DHT22;9677;50.656;13.064;2022-12-10T01:37:11;6.00;60.30
19090;DHT22;9677;50.656;13.064;2022-12-10T01:39:39;6.00;60.30
19090;DHT22;9677;50.656;13.064;2022-12-10T01:42:12;6.20;60.50
19090;DHT22;9677;50.656;13.064;2022-12-10T01:45:01;6.00;60.30
19090;DHT22;9677;50.656;13.064;2022-12-10T01:47:34;6.20;60.50
19090;DHT22;9677;50.656;13.064;2022-12-10T01:50:04;6.00;60.30
19090;DHT22;9677;50.656;13.064;2022-12-10T01:52:37;6.00;60.40
19090;DHT22;9677;50.656;13.064;2022-12-10T01:58:06;6.00;60.30
19090;DHT22;9677;50.656;13.064;2022-12-10T02:00:43;6.00;60.20
19090;DHT22;9677;50.656;13.064;2022-12-10T02:03:19;6.10;60.30
19090;DHT22;9677;50.656;13.064;2022-12-10T02:05:56;6.00;60.30
19090;DHT22;9677;50.656;13.064;2022-12-10T02:08:35;6.00;60.20
19090;DHT22;9677;50.656;13.064;2022-12-10T02:11:13;6.00;60.20
19090;DHT22;9677;50.656;13.064;2022-12-10T02:13:50;6.10;60.20
19090;DHT22;9677;50.656;13.064;2022-12-10T02:16:28;6.10;60.20
19090;DHT22;9677;50.656;13.064;2022-12-10T02:19:04;6.10;60.20
19090;DHT22;9677;50.656;13.064;2022-12-10T02:21:39;6.10;60.10
19090;DHT22;9677;50.656;13.064;2022-12-10T02:24:14;6.00;60.00
19090;DHT22;9677;50.656;13.064;2022-12-10T02:26:46;6.30;60.30
19090;DHT22;9677;50.656;13.064;2022-12-10T02:29:20;6.00;60.10
19090;DHT22;9677;50.656;13.064;2022-12-10T02:31:55;6.00;60.10
19090;DHT22;9677;50.656;13.064;2022-12-10T02:34:33;6.00;60.10
19090;DHT22;9677;50.656;13.064;2022-12-10T02:37:10;6.00;60.10
19090;DHT22;9677;50.656;13.064;2022-12-10T02:39:46;6.00;60.10
19090;DHT22;9677;50.656;13.064;2022-12-10T02:42:17;6.00;60.10
19090;DHT22;9677;50.656;13.064;2022-12-10T02:44:49;6.00;60.20
19090;DHT22;9677;50.656;13.064;2022-12-10T02:47:21;6.00;60.20
19090;DHT22;9677;50.656;13.064;2022-12-10T02:49:53;6.00;60.20
19090;DHT22;9677;50.656;13.064;2022-12-10T02:52:23;5.90;60.10
19090;DHT22;9677;50.656;13.064;2022-12-10T02:54:53;6.10;60.20
19090;DHT22;9677;50.656;13.064;2022-12-10T02:57:36;5.90;60.00
19090;DHT22;9677;50.656;13.064;2022-12-10T03:00:12;5.90;60.10
19090;DHT22;9677;50.656;13.064;2022-12-10T03:03:14;5.90;60.10
19090;DHT22;9677;50.656;13.064;2022-12-10T03:05:53;5.90;60.10
19090;DHT22;9677;50.656;13.064;2022-12-10T03:08:30;5.90;60.10
19090;DHT22;9677;50.656;13.064;2022-12-10T03:11:05;5.90;60.10
19090;DHT22;9677;50.656;13.064;2022-12-10T03:13:41;5.90;60.10
19090;DHT22;9677;50.656;13.064;2022-12-10T03:16:14;5.80;60.10
19090;DHT22;9677;50.656;13.064;2022-12-10T03:18:47;5.80;60.10
19090;DHT22;9677;50.656;13.064;2022-12-10T03:21:18;5.80;60.10
19090;DHT22;9677;50.656;13.064;2022-12-10T03:23:51;5.80;60.10
19090;DHT22;9677;50.656;13.064;2022-12-10T03:26:20;5.80;60.10
19090;DHT22;9677;50.656;13.064;2022-12-10T03:28:51;5.80;60.10
19090;DHT22;9677;50.656;13.064;2022-12-10T03:31:24;5.80;60.10
19090;DHT22;9677;50.656;13.064;2022-12-10T03:33:53;5.70;60.10
19090;DHT22;9677;50.656;13.064;2022-12-10T03:36:24;5.70;60.20
19090;DHT22;9677;50.656;13.064;2022-12-10T03:38:53;5.70;60.20
19090;DHT22;9677;50.656;13.064;2022-12-10T03:41:22;5.70;60.20
19090;DHT22;9677;50.656;13.064;2022-12-10T03:43:53;5.80;60.20
19090;DHT22;9677;50.656;13.064;2022-12-10T03:46:25;5.70;60.20
19090;DHT22;9677;50.656;13.064;2022-12-10T03:48:56;5.70;60.30
19090;DHT22;9677;50.656;13.064;2022-12-10T03:51:25;5.70;60.30
19090;DHT22;9677;50.656;13.064;2022-12-10T03:53:54;5.80;60.40
19090;DHT22;9677;50.656;13.064;2022-12-10T03:56:23;5.70;60.30
19090;DHT22;9677;50.656;13.064;2022-12-10T03:58:51;5.60;60.30
19090;DHT22;9677;50.656;13.064;2022-12-10T04:01:20;5.70;60.40
19090;DHT22;9677;50.656;13.064;2022-12-10T04:03:50;5.60;60.30
19090;DHT22;9677;50.656;13.064;2022-12-10T04:06:19;5.60;60.30
19090;DHT22;9677;50.656;13.064;2022-12-10T04:08:49;5.60;60.40
19090;DHT22;9677;50.656;13.064;2022-12-10T04:11:25;5.60;60.50
19090;DHT22;9677;50.656;13.064;2022-12-10T04:13:54;5.60;60.40
19090;DHT22;9677;50.656;13.064;2022-12-10T04:16:40;5.60;60.30
19090;DHT22;9677;50.656;13.064;2022-12-10T04:19:12;5.70;60.30
19090;DHT22;9677;50.656;13.064;2022-12-10T04:21:42;5.70;60.30
19090;DHT22;9677;50.656;13.064;2022-12-10T04:24:31;5.90;60.40
19090;DHT22;9677;50.656;13.064;2022-12-10T04:27:21;5.60;61.00
19090;DHT22;9677;50.656;13.064;2022-12-10T04:29:51;5.60;60.20
19090;DHT22;9677;50.656;13.064;2022-12-10T04:32:21;5.60;61.00
19090;DHT22;9677;50.656;13.064;2022-12-10T04:34:52;5.60;60.30
19090;DHT22;9677;50.656;13.064;2022-12-10T04:37:21;5.70;60.40
19090;DHT22;9677;50.656;13.064;2022-12-10T04:39:50;5.60;60.30
19090;DHT22;9677;50.656;13.064;2022-12-10T04:42:21;5.60;60.40
19090;DHT22;9677;50.656;13.064;2022-12-10T04:44:50;5.60;60.20
19090;DHT22;9677;50.656;13.064;2022-12-10T04:47:19;5.60;60.20
19090;DHT22;9677;50.656;13.064;2022-12-10T04:49:47;5.70;60.40
19090;DHT22;9677;50.656;13.064;2022-12-10T04:52:17;5.60;60.30
19090;DHT22;9677;50.656;13.064;2022-12-10T04:54:46;5.50;60.20
19090;DHT22;9677;50.656;13.064;2022-12-10T04:57:15;5.50;60.20
19090;DHT22;9677;50.656;13.064;2022-12-10T04:59:43;5.60;60.30
19090;DHT22;9677;50.656;13.064;2022-12-10T05:02:12;5.60;60.20
19090;DHT22;9677;50.656;13.064;2022-12-10T05:04:40;5.60;60.30
19090;DHT22;9677;50.656;13.064;2022-12-10T05:07:09;5.50;60.30
19090;DHT22;9677;50.656;13.064;2022-12-10T05:09:39;5.50;60.30
19090;DHT22;9677;50.656;13.064;2022-12-10T05:12:08;5.50;60.30
19090;DHT22;9677;50.656;13.064;2022-12-10T05:14:36;5.50;60.30
19090;DHT22;9677;50.656;13.064;2022-12-10T05:17:05;5.40;60.20
19090;DHT22;9677;50.656;13.064;2022-12-10T05:19:34;5.40;60.10
19090;DHT22;9677;50.656;13.064;2022-12-10T05:22:03;5.40;60.20
19090;DHT22;9677;50.656;13.064;2022-12-10T05:24:50;5.40;60.20
19090;DHT22;9677;50.656;13.064;2022-12-10T05:27:18;5.40;60.20
19090;DHT22;9677;50.656;13.064;2022-12-10T05:29:47;5.60;60.30
19090;DHT22;9677;50.656;13.064;2022-12-10T05:32:15;5.30;60.10
19090;DHT22;9677;50.656;13.064;2022-12-10T05:34:44;5.30;60.20
19090;DHT22;9677;50.656;13.064;2022-12-10T05:37:12;5.30;60.20
19090;DHT22;9677;50.656;13.064;2022-12-10T05:39:41;5.30;60.20
19090;DHT22;9677;50.656;13.064;2022-12-10T05:42:11;5.40;60.40
19090;DHT22;9677;50.656;13.064;2022-12-10T05:44:40;5.20;60.20
19090;DHT22;9677;50.656;13.064;2022-12-10T05:47:08;5.30;60.30
19090;DHT22;9677;50.656;13.064;2022-12-10T05:49:37;5.20;60.30
19090;DHT22;9677;50.656;13.064;2022-12-10T05:52:06;5.20;60.30
19090;DHT22;9677;50.656;13.064;2022-12-10T05:54:35;5.20;60.40
19090;DHT22;9677;50.656;13.064;2022-12-10T05:57:04;5.20;60.40
19090;DHT22;9677;50.656;13.064;2022-12-10T05:59:35;5.20;60.40
19090;DHT22;9677;50.656;13.064;2022-12-10T06:02:04;5.20;60.40
19090;DHT22;9677;50.656;13.064;2022-12-10T06:04:32;5.20;60.40
19090;DHT22;9677;50.656;13.064;2022-12-10T06:07:01;5.20;60.50
19090;DHT22;9677;50.656;13.064;2022-12-10T06:09:37;5.40;60.70
19090;DHT22;9677;50.656;13.064;2022-12-10T06:12:05;5.20;60.60
19090;DHT22;9677;50.656;13.064;2022-12-10T06:14:35;5.20;60.70
19090;DHT22;9677;50.656;13.064;2022-12-10T06:17:04;5.20;60.70
19090;DHT22;9677;50.656;13.064;2022-12-10T06:19:33;5.30;60.80
19090;DHT22;9677;50.656;13.064;2022-12-10T06:22:02;5.20;60.70
19090;DHT22;9677;50.656;13.064;2022-12-10T06:24:31;5.20;60.70
19090;DHT22;9677;50.656;13.064;2022-12-10T06:26:59;5.20;60.70
19090;DHT22;9677;50.656;13.064;2022-12-10T06:29:28;5.20;60.70
19090;DHT22;9677;50.656;13.064;2022-12-10T06:31:58;5.20;61.50
19090;DHT22;9677;50.656;13.064;2022-12-10T06:34:27;5.40;61.70
19090;DHT22;9677;50.656;13.064;2022-12-10T06:36:55;5.20;60.80
19090;DHT22;9677;50.656;13.064;2022-12-10T06:39:24;5.20;60.80
19090;DHT22;9677;50.656;13.064;2022-12-10T06:41:53;5.20;60.80
19090;DHT22;9677;50.656;13.064;2022-12-10T06:44:25;5.20;60.90
19090;DHT22;9677;50.656;13.064;2022-12-10T06:46:54;5.30;60.80
19090;DHT22;9677;50.656;13.064;2022-12-10T06:49:24;5.20;60.80
19090;DHT22;9677;50.656;13.064;2022-12-10T06:51:52;5.20;60.70
19090;DHT22;9677;50.656;13.064;2022-12-10T06:54:21;5.20;61.10
19090;DHT22;9677;50.656;13.064;2022-12-10T06:56:50;5.20;60.70
19090;DHT22;9677;50.656;13.064;2022-12-10T06:59:18;5.20;60.70
19090;DHT22;9677;50.656;13.064;2022-12-10T07:01:47;5.20;60.70
19090;DHT22;9677;50.656;13.064;2022-12-10T07:04:16;5.30;60.80
19090;DHT22;9677;50.656;13.064;2022-12-10T07:06:46;5.20;60.70
19090;DHT22;9677;50.656;13.064;2022-12-10T07:09:15;5.20;60.80
19090;DHT22;9677;50.656;13.064;2022-12-10T07:11:44;5.20;60.80
19090;DHT22;9677;50.656;13.064;2022-12-10T07:14:15;5.20;60.70
19090;DHT22;9677;50.656;13.064;2022-12-10T07:16:44;5.20;60.70
19090;DHT22;9677;50.656;13.064;2022-12-10T07:19:13;5.30;60.80
19090;DHT22;9677;50.656;13.064;2022-12-10T07:21:42;5.20;60.70
19090;DHT22;9677;50.656;13.064;2022-12-10T07:24:15;5.30;60.80
19090;DHT22;9677;50.656;13.064;2022-12-10T07:26:46;5.30;60.80
19090;DHT22;9677;50.656;13.064;2022-12-10T07:29:16;5.20;60.70
19090;DHT22;9677;50.656;13.064;2022-12-10T07:31:47;5.20;60.70
19090;DHT22;9677;50.656;13.064;2022-12-10T07:34:17;5.30;60.80
19090;DHT22;9677;50.656;13.064;2022-12-10T07:36:45;5.20;60.70
19090;DHT22;9677;50.656;13.064;2022-12-10T07:39:15;5.40;60.90
19090;DHT22;9677;50.656;13.064;2022-12-10T07:41:46;5.20;60.80
19090;DHT22;9677;50.656;13.064;2022-12-10T07:44:17;5.20;60.70
19090;DHT22;9677;50.656;13.064;2022-12-10T07:46:48;5.20;60.70
19090;DHT22;9677;50.656;13.064;2022-12-10T07:49:18;5.20;60.70
19090;DHT22;9677;50.656;13.064;2022-12-10T07:51:48;5.40;60.80
19090;DHT22;9677;50.656;13.064;2022-12-10T07:54:19;5.20;60.80
19090;DHT22;9677;50.656;13.064;2022-12-10T07:56:48;5.20;60.70
19090;DHT22;9677;50.656;13.064;2022-12-10T07:59:16;5.20;60.70
19090;DHT22;9677;50.656;13.064;2022-12-10T08:01:45;5.30;60.80
19090;DHT22;9677;50.656;13.064;2022-12-10T08:04:15;5.30;60.90
19090;DHT22;9677;50.656;13.064;2022-12-10T08:06:43;5.20;60.80
19090;DHT22;9677;50.656;13.064;2022-12-10T08:09:12;5.40;61.00
19090;DHT22;9677;50.656;13.064;2022-12-10T08:11:42;5.30;61.00
19090;DHT22;9677;50.656;13.064;2022-12-10T08:14:10;5.40;61.10
19090;DHT22;9677;50.656;13.064;2022-12-10T08:16:39;5.30;61.80
19090;DHT22;9677;50.656;13.064;2022-12-10T08:19:08;5.40;61.10
19090;DHT22;9677;50.656;13.064;2022-12-10T08:21:43;5.30;61.10
19090;DHT22;9677;50.656;13.064;2022-12-10T08:24:12;5.40;61.10
19090;DHT22;9677;50.656;13.064;2022-12-10T08:26:42;5.40;61.10
19090;DHT22;9677;50.656;13.064;2022-12-10T08:29:10;5.40;61.10
19090;DHT22;9677;50.656;13.064;2022-12-10T08:31:39;5.40;61.10
19090;DHT22;9677;50.656;13.064;2022-12-10T08:34:12;5.40;61.10
19090;DHT22;9677;50.656;13.064;2022-12-10T08:36:41;5.40;61.10
19090;DHT22;9677;50.656;13.064;2022-12-10T08:39:11;5.40;61.00
19090;DHT22;9677;50.656;13.064;2022-12-10T08:41:44;5.40;60.90
19090;DHT22;9677;50.656;13.064;2022-12-10T08:44:14;5.50;60.90
19090;DHT22;9677;50.656;13.064;2022-12-10T08:46:42;5.50;60.90
19090;DHT22;9677;50.656;13.064;2022-12-10T08:49:11;5.50;60.80
19090;DHT22;9677;50.656;13.064;2022-12-10T08:51:41;5.50;60.90
19090;DHT22;9677;50.656;13.064;2022-12-10T08:54:10;5.50;60.90
19090;DHT22;9677;50.656;13.064;2022-12-10T08:56:38;5.60;61.00
19090;DHT22;9677;50.656;13.064;2022-12-10T08:59:09;5.60;61.80
19090;DHT22;9677;50.656;13.064;2022-12-10T09:01:38;5.60;60.90
19090;DHT22;9677;50.656;13.064;2022-12-10T09:04:06;5.60;60.90
19090;DHT22;9677;50.656;13.064;2022-12-10T09:06:35;5.60;60.90
19090;DHT22;9677;50.656;13.064;2022-12-10T09:09:04;5.70;60.90
19090;DHT22;9677;50.656;13.064;2022-12-10T09:11:34;5.70;60.90
19090;DHT22;9677;50.656;13.064;2022-12-10T09:14:03;5.80;61.00
19090;DHT22;9677;50.656;13.064;2022-12-10T09:16:35;5.70;60.80
19090;DHT22;9677;50.656;13.064;2022-12-10T09:19:06;5.80;60.80
19090;DHT22;9677;50.656;13.064;2022-12-10T09:21:35;5.80;60.60
19090;DHT22;9677;50.656;13.064;2022-12-10T09:24:04;5.80;60.50
19090;DHT22;9677;50.656;13.064;2022-12-10T09:26:33;5.80;60.50
19090;DHT22;9677;50.656;13.064;2022-12-10T09:29:02;5.80;60.50
19090;DHT22;9677;50.656;13.064;2022-12-10T09:31:31;5.80;60.50
19090;DHT22;9677;50.656;13.064;2022-12-10T09:34:01;5.80;60.50
19090;DHT22;9677;50.656;13.064;2022-12-10T09:36:30;5.80;60.50
19090;DHT22;9677;50.656;13.064;2022-12-10T09:39:00;5.80;60.50
19090;DHT22;9677;50.656;13.064;2022-12-10T09:41:43;5.80;60.60
19090;DHT22;9677;50.656;13.064;2022-12-10T09:44:36;5.90;60.50
19090;DHT22;9677;50.656;13.064;2022-12-10T09:47:11;5.90;60.50
19090;DHT22;9677;50.656;13.064;2022-12-10T09:49:49;5.90;60.50
19090;DHT22;9677;50.656;13.064;2022-12-10T09:52:26;5.90;60.50
19090;DHT22;9677;50.656;13.064;2022-12-10T09:54:58;5.90;60.50
19090;DHT22;9677;50.656;13.064;2022-12-10T09:57:30;6.00;60.50
19090;DHT22;9677;50.656;13.064;2022-12-10T10:00:03;6.00;60.40
19090;DHT22;9677;50.656;13.064;2022-12-10T10:02:38;6.00;60.40
19090;DHT22;9677;50.656;13.064;2022-12-10T10:05:11;6.00;60.40
19090;DHT22;9677;50.656;13.064;2022-12-10T10:07:46;6.00;60.40
19090;DHT22;9677;50.656;13.064;2022-12-10T10:10:23;6.10;60.50
19090;DHT22;9677;50.656;13.064;2022-12-10T10:12:55;6.10;60.30
19090;DHT22;9677;50.656;13.064;2022-12-10T10:15:32;6.10;60.40
19090;DHT22;9677;50.656;13.064;2022-12-10T10:18:09;6.10;60.30
19090;DHT22;9677;50.656;13.064;2022-12-10T10:20:42;6.20;60.30
19090;DHT22;9677;50.656;13.064;2022-12-10T10:23:13;6.30;60.40
19090;DHT22;9677;50.656;13.064;2022-12-10T10:25:43;6.20;60.30
19090;DHT22;9677;50.656;13.064;2022-12-10T10:28:14;6.30;60.30
19090;DHT22;9677;50.656;13.064;2022-12-10T10:30:46;6.30;60.20
19090;DHT22;9677;50.656;13.064;2022-12-10T10:33:17;6.30;60.10
19090;DHT22;9677;50.656;13.064;2022-12-10T10:35:48;6.30;60.00
19090;DHT22;9677;50.656;13.064;2022-12-10T10:38:21;6.30;60.00
19090;DHT22;9677;50.656;13.064;2022-12-10T10:40:52;6.40;60.00
19090;DHT22;9677;50.656;13.064;2022-12-10T10:43:24;6.40;59.90
19090;DHT22;9677;50.656;13.064;2022-12-10T10:45:58;6.40;59.80
19090;DHT22;9677;50.656;13.064;2022-12-10T10:48:29;6.30;59.70
19090;DHT22;9677;50.656;13.064;2022-12-10T10:51:06;6.30;59.60
19090;DHT22;9677;50.656;13.064;2022-12-10T10:53:45;6.30;59.60
19090;DHT22;9677;50.656;13.064;2022-12-10T10:56:16;6.40;59.70
19090;DHT22;9677;50.656;13.064;2022-12-10T10:58:52;6.30;59.70
19090;DHT22;9677;50.656;13.064;2022-12-10T11:01:24;6.30;59.70
19090;DHT22;9677;50.656;13.064;2022-12-10T11:03:58;6.30;59.60
19090;DHT22;9677;50.656;13.064;2022-12-10T11:06:28;6.30;59.60
19090;DHT22;9677;50.656;13.064;2022-12-10T11:08:58;6.40;59.70
19090;DHT22;9677;50.656;13.064;2022-12-10T11:11:32;6.20;59.60
19090;DHT22;9677;50.656;13.064;2022-12-10T11:14:23;6.20;59.60
19090;DHT22;9677;50.656;13.064;2022-12-10T11:17:00;6.20;59.70
19090;DHT22;9677;50.656;13.064;2022-12-10T11:19:32;6.20;59.80
19090;DHT22;9677;50.656;13.064;2022-12-10T11:22:19;6.20;59.80
19090;DHT22;9677;50.656;13.064;2022-12-10T11:24:49;6.10;59.80
19090;DHT22;9677;50.656;13.064;2022-12-10T11:27:29;6.10;59.90
19090;DHT22;9677;50.656;13.064;2022-12-10T11:30:09;6.20;60.00
19090;DHT22;9677;50.656;13.064;2022-12-10T11:35:50;6.20;60.00
19090;DHT22;9677;50.656;13.064;2022-12-10T11:38:28;6.20;60.00
19090;DHT22;9677;50.656;13.064;2022-12-10T11:41:05;6.20;60.00
19090;DHT22;9677;50.656;13.064;2022-12-10T11:43:47;6.20;60.00
19090;DHT22;9677;50.656;13.064;2022-12-10T11:46:46;6.20;60.00
19090;DHT22;9677;50.656;13.064;2022-12-10T11:49:38;6.20;60.00
19090;DHT22;9677;50.656;13.064;2022-12-10T11:52:14;6.20;59.80
19090;DHT22;9677;50.656;13.064;2022-12-10T11:54:58;6.20;59.80
19090;DHT22;9677;50.656;13.064;2022-12-10T11:57:45;6.20;59.80
19090;DHT22;9677;50.656;13.064;2022-12-10T12:00:20;6.10;59.80
19090;DHT22;9677;50.656;13.064;2022-12-10T12:03:08;6.20;59.80
19090;DHT22;9677;50.656;13.064;2022-12-10T12:05:54;6.10;59.80
19090;DHT22;9677;50.656;13.064;2022-12-10T12:08:44;6.20;59.90
19090;DHT22;9677;50.656;13.064;2022-12-10T12:11:35;6.10;59.80
19090;DHT22;9677;50.656;13.064;2022-12-10T12:14:19;6.10;59.80
19090;DHT22;9677;50.656;13.064;2022-12-10T12:16:58;6.10;59.70
19090;DHT22;9677;50.656;13.064;2022-12-10T12:19:34;6.10;59.70
19090;DHT22;9677;50.656;13.064;2022-12-10T12:22:13;6.00;59.60
19090;DHT22;9677;50.656;13.064;2022-12-10T12:24:46;6.00;59.60
19090;DHT22;9677;50.656;13.064;2022-12-10T12:27:24;6.00;59.60
19090;DHT22;9677;50.656;13.064;2022-12-10T12:30:04;6.00;59.60
19090;DHT22;9677;50.656;13.064;2022-12-10T12:32:43;5.90;59.60
19090;DHT22;9677;50.656;13.064;2022-12-10T12:35:18;5.90;59.60
19090;DHT22;9677;50.656;13.064;2022-12-10T12:37:55;5.90;59.70
19090;DHT22;9677;50.656;13.064;2022-12-10T12:40:33;5.90;59.70
19090;DHT22;9677;50.656;13.064;2022-12-10T12:43:07;5.90;59.80
19090;DHT22;9677;50.656;13.064;2022-12-10T12:45:40;5.90;59.80
19090;DHT22;9677;50.656;13.064;2022-12-10T12:48:16;5.80;59.80
19090;DHT22;9677;50.656;13.064;2022-12-10T12:50:53;5.90;59.80
19090;DHT22;9677;50.656;13.064;2022-12-10T12:53:23;5.80;59.80
19090;DHT22;9677;50.656;13.064;2022-12-10T12:56:07;5.80;59.70
19090;DHT22;9677;50.656;13.064;2022-12-10T12:58:40;5.80;59.60
19090;DHT22;9677;50.656;13.064;2022-12-10T13:01:18;5.80;59.60
19090;DHT22;9677;50.656;13.064;2022-12-10T13:03:49;5.80;59.60
19090;DHT22;9677;50.656;13.064;2022-12-10T13:06:22;5.80;59.60
19090;DHT22;9677;50.656;13.064;2022-12-10T13:08:59;5.80;59.60
19090;DHT22;9677;50.656;13.064;2022-12-10T13:12:15;5.70;59.60
19090;DHT22;9677;50.656;13.064;2022-12-10T13:15:01;5.70;59.60
19090;DHT22;9677;50.656;13.064;2022-12-10T13:18:00;5.80;59.60
19090;DHT22;9677;50.656;13.064;2022-12-10T13:20:40;5.70;59.60
19090;DHT22;9677;50.656;13.064;2022-12-10T13:23:31;5.60;59.50
19090;DHT22;9677;50.656;13.064;2022-12-10T13:26:23;5.50;59.40
19090;DHT22;9677;50.656;13.064;2022-12-10T13:28:55;5.50;59.40
19090;DHT22;9677;50.656;13.064;2022-12-10T13:31:37;5.50;59.50
19090;DHT22;9677;50.656;13.064;2022-12-10T13:34:21;5.40;59.50
19090;DHT22;9677;50.656;13.064;2022-12-10T13:37:18;5.40;59.60
19090;DHT22;9677;50.656;13.064;2022-12-10T13:40:11;5.30;59.60
19090;DHT22;9677;50.656;13.064;2022-12-10T13:42:44;5.40;59.70
19090;DHT22;9677;50.656;13.064;2022-12-10T13:45:34;5.30;59.70
19090;DHT22;9677;50.656;13.064;2022-12-10T13:48:25;5.30;59.70
19090;DHT22;9677;50.656;13.064;2022-12-10T13:51:15;5.30;59.70
19090;DHT22;9677;50.656;13.064;2022-12-10T13:56:55;5.20;59.70
19090;DHT22;9677;50.656;13.064;2022-12-10T13:59:37;5.20;60.40
19090;DHT22;9677;50.656;13.064;2022-12-10T14:02:32;5.20;59.80
19090;DHT22;9677;50.656;13.064;2022-12-10T14:05:23;5.20;59.80
19090;DHT22;9677;50.656;13.064;2022-12-10T14:08:11;5.20;59.90
19090;DHT22;9677;50.656;13.064;2022-12-10T14:10:44;5.20;60.00
19090;DHT22;9677;50.656;13.064;2022-12-10T14:13:16;5.40;60.00
19090;DHT22;9677;50.656;13.064;2022-12-10T14:15:53;5.20;59.90
19090;DHT22;9677;50.656;13.064;2022-12-10T14:18:24;5.10;59.80
19090;DHT22;9677;50.656;13.064;2022-12-10T14:20:56;5.10;59.80
19090;DHT22;9677;50.656;13.064;2022-12-10T14:23:27;5.40;60.00
19090;DHT22;9677;50.656;13.064;2022-12-10T14:26:15;5.10;59.80
19090;DHT22;9677;50.656;13.064;2022-12-10T14:28:46;5.20;59.90
19090;DHT22;9677;50.656;13.064;2022-12-10T14:31:19;5.10;59.90
19090;DHT22;9677;50.656;13.064;2022-12-10T14:33:52;5.30;60.00
19090;DHT22;9677;50.656;13.064;2022-12-10T14:36:27;5.10;60.00
19090;DHT22;9677;50.656;13.064;2022-12-10T14:38:57;5.00;60.00
19090;DHT22;9677;50.656;13.064;2022-12-10T14:41:28;5.00;60.00
19090;DHT22;9677;50.656;13.064;2022-12-10T14:44:06;5.20;60.30
19090;DHT22;9677;50.656;13.064;2022-12-10T14:46:39;5.20;60.30
19090;DHT22;9677;50.656;13.064;2022-12-10T14:49:15;5.00;60.10
19090;DHT22;9677;50.656;13.064;2022-12-10T14:51:44;5.00;60.10
19090;DHT22;9677;50.656;13.064;2022-12-10T14:54:27;5.00;60.10
19090;DHT22;9677;50.656;13.064;2022-12-10T14:57:01;5.00;60.10
19090;DHT22;9677;50.656;13.064;2022-12-10T14:59:35;5.00;60.00
19090;DHT22;9677;50.656;13.064;2022-12-10T15:02:15;5.00;60.10
19090;DHT22;9677;50.656;13.064;2022-12-10T15:04:48;5.00;60.00
19090;DHT22;9677;50.656;13.064;2022-12-10T15:07:20;4.90;59.90
19090;DHT22;9677;50.656;13.064;2022-12-10T15:09:53;4.90;59.90
19090;DHT22;9677;50.656;13.064;2022-12-10T15:12:29;4.90;59.90
19090;DHT22;9677;50.656;13.064;2022-12-10T15:15:05;4.90;59.80
19090;DHT22;9677;50.656;13.064;2022-12-10T15:17:39;4.80;59.80
19090;DHT22;9677;50.656;13.064;2022-12-10T15:20:22;4.80;59.80
19090;DHT22;9677;50.656;13.064;2022-12-10T15:22:52;4.80;59.80
19090;DHT22;9677;50.656;13.064;2022-12-10T15:25:27;4.80;59.80
19090;DHT22;9677;50.656;13.064;2022-12-10T15:27:58;4.70;59.80
19090;DHT22;9677;50.656;13.064;2022-12-10T15:30:36;4.70;59.80
19090;DHT22;9677;50.656;13.064;2022-12-10T15:33:25;4.60;59.80
19090;DHT22;9677;50.656;13.064;2022-12-10T15:36:00;4.60;59.90
19090;DHT22;9677;50.656;13.064;2022-12-10T15:38:29;4.60;59.90
19090;DHT22;9677;50.656;13.064;2022-12-10T15:40:59;4.50;60.00
19090;DHT22;9677;50.656;13.064;2022-12-10T15:43:57;4.50;60.00
19090;DHT22;9677;50.656;13.064;2022-12-10T15:46:26;4.50;60.00
19090;DHT22;9677;50.656;13.064;2022-12-10T15:48:55;4.50;60.10
19090;DHT22;9677;50.656;13.064;2022-12-10T15:51:25;4.50;60.20
19090;DHT22;9677;50.656;13.064;2022-12-10T15:53:54;4.40;60.20
19090;DHT22;9677;50.656;13.064;2022-12-10T15:56:22;4.40;60.20
19090;DHT22;9677;50.656;13.064;2022-12-10T15:58:51;4.60;60.30
19090;DHT22;9677;50.656;13.064;2022-12-10T16:01:20;4.40;60.30
19090;DHT22;9677;50.656;13.064;2022-12-10T16:03:49;4.50;60.50
19090;DHT22;9677;50.656;13.064;2022-12-10T16:06:17;4.40;60.50
19090;DHT22;9677;50.656;13.064;2022-12-10T16:08:48;4.50;60.60
19090;DHT22;9677;50.656;13.064;2022-12-10T16:11:18;4.60;60.70
19090;DHT22;9677;50.656;13.064;2022-12-10T16:13:49;4.70;60.80
19090;DHT22;9677;50.656;13.064;2022-12-10T16:16:20;4.50;60.60
19090;DHT22;9677;50.656;13.064;2022-12-10T16:18:49;4.60;60.60
19090;DHT22;9677;50.656;13.064;2022-12-10T16:21:17;4.70;60.70
19090;DHT22;9677;50.656;13.064;2022-12-10T16:23:47;4.60;60.60
19090;DHT22;9677;50.656;13.064;2022-12-10T16:26:18;4.70;60.70
19090;DHT22;9677;50.656;13.064;2022-12-10T16:28:48;4.60;60.60
19090;DHT22;9677;50.656;13.064;2022-12-10T16:31:20;4.60;60.50